Time;durP1;ratioP1;P1;durP2;ratioP2;P2;SDS_P1;SDS_P2;PMS_P1;PMS_P2;Temp;Humidity;BMP_temperature;BMP_pressure;BME280_temperature;BME280_humidity;BME280_pressure;Samples;Min_cycle;Max_cycle;Signal;HPM_P1;HPM_P2
2023/07/11 00:01:16;;;;;;;6.90;3.08;;;;;;;23.29;42.55;100014.41;10281668;28;20610;-37
2023/07/11 00:06:19;;;;;;;6.00;3.05;;;;;;;23.84;41.90;99983.00;10281685;28;20298;-37
2023/07/11 00:11:21;;;;;;;6.60;3.30;;;;;;;23.55;42.16;99986.13;10285474;28;20231;-37
2023/07/11 00:16:23;;;;;;;6.57;3.08;;;;;;;23.01;42.24;100009.03;10281904;28;20247;-37
2023/07/11 00:21:25;;;;;;;4.25;2.83;;;;;;;21.55;43.34;100030.69;10289870;28;20824;-37
2023/07/11 00:26:27;;;;;;;4.35;3.13;;;;;;;23.13;41.11;99969.81;10280357;28;20281;-37
2023/07/11 00:31:28;;;;;;;8.45;3.00;;;;;;;21.51;43.19;100024.91;10289564;28;20281;-37
2023/07/11 00:36:30;;;;;;;6.05;3.17;;;;;;;21.93;42.91;99986.22;10282079;28;20231;-37
2023/07/11 00:41:32;;;;;;;7.07;3.33;;;;;;;22.19;42.52;99967.41;10288450;28;20248;-37
2023/07/11 00:46:34;;;;;;;4.43;3.10;;;;;;;21.23;43.83;100004.09;10292912;28;20404;-37
2023/07/11 00:51:43;;;;;;;4.00;3.20;;;;;;;21.32;42.99;99978.06;10283433;28;20251;-37
2023/07/11 00:56:47;;;;;;;7.20;3.47;;;;;;;21.02;43.74;99981.19;10282234;28;20293;-37
2023/07/11 01:02:25;;;;;;;6.55;3.55;;;;;;;22.18;42.39;99902.28;10285731;28;20238;-37
2023/07/11 01:07:32;;;;;;;5.18;3.30;;;;;;;21.72;42.41;99949.75;10267123;28;20259;-37
2023/07/11 01:12:34;;;;;;;3.78;3.08;;;;;;;21.37;42.15;99952.84;10297044;28;20270;-37
2023/07/11 01:17:37;;;;;;;3.88;2.70;;;;;;;22.71;40.79;99936.78;10279517;28;20231;-37
2023/07/11 01:22:39;;;;;;;4.97;3.15;;;;;;;23.37;40.60;99907.44;10280162;28;20340;-37
2023/07/11 01:27:45;;;;;;;4.68;2.90;;;;;;;24.17;39.43;99937.16;10283361;28;20243;-37
2023/07/11 01:32:47;;;;;;;4.97;2.95;;;;;;;23.16;40.99;100002.03;10285538;28;20717;-37
2023/07/11 01:37:49;;;;;;;3.65;2.97;;;;;;;23.59;41.66;99951.72;10283233;28;20226;-37
2023/07/11 01:42:51;;;;;;;5.65;2.88;;;;;;;23.43;40.75;99936.38;10289896;28;20239;-37
2023/07/11 01:47:53;;;;;;;3.97;2.85;;;;;;;23.48;40.60;99911.81;10286148;28;20230;-37
2023/07/11 01:52:55;;;;;;;3.70;2.78;;;;;;;24.00;39.63;99910.03;10276517;28;20619;-37
2023/07/11 01:57:56;;;;;;;3.80;2.65;;;;;;;20.98;42.04;99958.28;10288596;28;20240;-37
2023/07/11 02:02:58;;;;;;;4.05;3.03;;;;;;;22.34;40.59;99884.97;10289256;28;20257;-37
2023/07/11 02:08:00;;;;;;;5.10;3.17;;;;;;;23.28;39.31;99906.28;10278001;28;20241;-37
2023/07/11 02:13:02;;;;;;;4.88;3.03;;;;;;;22.92;40.22;99925.19;10282619;28;21776;-37
2023/07/11 02:18:04;;;;;;;4.55;3.10;;;;;;;22.09;41.51;99932.72;10275101;28;20600;-37
2023/07/11 02:23:05;;;;;;;4.45;2.95;;;;;;;23.27;39.97;99908.19;10272835;28;20226;-37
2023/07/11 02:28:08;;;;;;;5.97;3.50;;;;;;;24.57;38.98;99856.19;10277559;28;20207;-37
2023/07/11 02:33:10;;;;;;;3.58;2.70;;;;;;;23.76;40.15;99909.75;10280382;28;20655;-37
2023/07/11 02:38:12;;;;;;;4.00;2.92;;;;;;;24.19;40.66;99850.22;10287235;28;20213;-37
2023/07/11 02:43:15;;;;;;;4.00;2.80;;;;;;;23.24;42.10;99870.53;10287877;28;20316;-37
2023/07/11 02:48:17;;;;;;;4.32;3.20;;;;;;;22.84;41.76;99897.34;10278782;28;20211;-37
2023/07/11 02:53:19;;;;;;;6.55;3.30;;;;;;;23.45;41.59;99858.56;10289810;28;20677;-37
2023/07/11 02:58:21;;;;;;;4.22;2.88;;;;;;;23.39;41.19;99848.72;10287152;28;20219;-37
2023/07/11 03:03:23;;;;;;;4.15;3.00;;;;;;;23.48;40.77;99862.66;10283282;28;20252;-37
2023/07/11 03:08:25;;;;;;;4.07;3.15;;;;;;;22.53;42.29;99869.03;10278594;28;20289;-37
2023/07/11 03:13:28;;;;;;;4.45;3.15;;;;;;;22.12;43.07;99863.28;10278083;28;20721;-37
2023/07/11 03:18:30;;;;;;;4.20;2.88;;;;;;;21.00;44.18;99858.22;10278363;28;20239;-37
2023/07/11 03:23:32;;;;;;;3.78;2.92;;;;;;;22.99;40.58;99781.97;10282471;28;20230;-37
2023/07/11 03:28:34;;;;;;;6.00;3.47;;;;;;;22.26;41.79;99864.47;10270466;28;20850;-37
2023/07/11 03:33:36;;;;;;;3.95;3.00;;;;;;;22.60;41.20;99795.19;10290233;28;20249;-37
2023/07/11 03:38:39;;;;;;;5.78;2.90;;;;;;;21.10;44.23;99877.38;10284818;28;20222;-37
2023/07/11 03:43:41;;;;;;;4.88;3.00;;;;;;;22.74;41.25;99790.91;10268313;28;20250;-37
2023/07/11 03:48:42;;;;;;;3.08;2.78;;;;;;;23.05;41.45;99796.47;10282563;28;20249;-37
2023/07/11 03:53:44;;;;;;;3.92;3.13;;;;;;;22.12;42.40;99850.47;10286458;28;20329;-37
2023/07/11 03:58:46;;;;;;;4.43;3.13;;;;;;;21.57;41.50;99844.19;10282868;28;20214;-37
2023/07/11 04:03:48;;;;;;;3.30;2.70;;;;;;;22.52;41.06;99802.78;10284189;28;20242;-36
2023/07/11 04:08:50;;;;;;;4.25;3.60;;;;;;;21.96;40.83;99844.06;10289986;28;20237;-36
2023/07/11 04:13:52;;;;;;;4.65;3.30;;;;;;;20.91;42.85;99846.97;10296104;28;20260;-36
2023/07/11 04:18:53;;;;;;;5.70;3.80;;;;;;;20.72;43.27;99826.56;10290767;28;20233;-35
2023/07/11 04:23:55;;;;;;;4.85;3.50;;;;;;;20.26;44.19;99837.56;10291637;28;20234;-36
2023/07/11 04:28:57;;;;;;;5.15;3.30;;;;;;;20.31;44.48;99807.75;10291418;28;20356;-35
2023/07/11 04:33:59;;;;;;;6.30;3.70;;;;;;;20.83;43.79;99766.66;10278700;28;20348;-36
2023/07/11 04:39:01;;;;;;;4.80;3.70;;;;;;;22.26;41.24;99830.94;10291089;28;20281;-36
2023/07/11 04:44:03;;;;;;;3.90;3.38;;;;;;;23.40;41.58;99762.19;10293057;28;20312;-36
2023/07/11 04:49:04;;;;;;;4.22;3.05;;;;;;;21.84;42.54;99843.38;10297760;28;20239;-36
2023/07/11 04:54:06;;;;;;;7.43;3.30;;;;;;;23.34;40.71;99766.00;10285581;28;20221;-36
2023/07/11 04:59:08;;;;;;;4.15;3.20;;;;;;;21.42;42.79;99863.09;10289222;28;21205;-36
2023/07/11 05:04:10;;;;;;;4.95;3.05;;;;;;;22.15;41.11;99789.19;10282732;28;20241;-36
2023/07/11 05:09:12;;;;;;;4.28;3.40;;;;;;;21.52;42.59;99821.56;10284754;28;20231;-36
2023/07/11 05:14:14;;;;;;;6.45;3.78;;;;;;;22.69;41.26;99752.69;10286440;28;20239;-37
2023/07/11 05:19:16;;;;;;;4.88;3.45;;;;;;;23.13;40.75;99828.72;10271566;28;20291;-36
2023/07/11 05:24:18;;;;;;;5.40;3.50;;;;;;;23.08;41.31;99744.94;10275861;28;20317;-36
2023/07/11 05:29:19;;;;;;;5.05;3.10;;;;;;;20.45;43.91;99863.41;10277001;28;20720;-37
2023/07/11 05:34:21;;;;;;;4.53;3.30;;;;;;;20.92;44.54;99758.88;10281156;28;20222;-36
2023/07/11 05:39:23;;;;;;;4.70;3.75;;;;;;;20.99;44.11;99829.38;10284444;28;20701;-36
2023/07/11 05:44:25;;;;;;;7.20;3.90;;;;;;;22.60;42.61;99708.75;10285730;28;20282;-36
2023/07/11 05:49:27;;;;;;;4.50;3.28;;;;;;;22.95;42.52;99707.22;10279306;28;20233;-36
2023/07/11 05:54:28;;;;;;;5.57;3.83;;;;;;;22.79;42.57;99724.63;10288337;28;20238;-36
2023/07/11 05:59:30;;;;;;;4.25;3.42;;;;;;;21.97;43.81;99750.34;10276093;28;20223;-37
2023/07/11 06:04:32;;;;;;;5.35;3.30;;;;;;;22.64;43.56;99725.38;10286168;28;20265;-36
2023/07/11 06:09:34;;;;;;;4.93;3.83;;;;;;;22.46;44.22;99708.38;10280739;28;20283;-36
2023/07/11 06:14:36;;;;;;;5.63;3.38;;;;;;;24.16;41.53;99753.19;10286063;28;20281;-36
2023/07/11 06:19:38;;;;;;;4.38;3.50;;;;;;;22.49;43.56;99835.19;10281940;28;20222;-36
2023/07/11 06:24:40;;;;;;;6.80;3.65;;;;;;;24.11;42.01;99768.75;10284775;28;20798;-36
2023/07/11 06:29:42;;;;;;;5.10;3.33;;;;;;;24.91;40.19;99766.06;10282318;28;20242;-36
2023/07/11 06:34:44;;;;;;;4.45;3.03;;;;;;;23.21;43.19;99805.53;10270769;28;20234;-36
2023/07/11 06:39:46;;;;;;;5.40;3.90;;;;;;;25.44;40.19;99731.84;10285484;28;20280;-36
2023/07/11 06:44:48;;;;;;;4.82;3.80;;;;;;;23.42;42.77;99828.25;10284161;28;20255;-36
2023/07/11 06:49:50;;;;;;;4.93;3.92;;;;;;;22.99;43.94;99779.25;10287396;28;20217;-36
2023/07/11 06:54:51;;;;;;;4.53;3.47;;;;;;;23.63;43.39;99695.31;10289836;28;20715;-36
2023/07/11 06:59:53;;;;;;;4.97;3.85;;;;;;;25.02;41.48;99734.00;10273531;28;20686;-36
2023/07/11 07:04:55;;;;;;;7.30;3.60;;;;;;;24.85;41.11;99763.63;10287774;28;20241;-36
2023/07/11 07:09:58;;;;;;;4.97;3.60;;;;;;;23.86;41.86;99762.22;10285482;28;20214;-36
2023/07/11 07:14:59;;;;;;;6.03;3.85;;;;;;;24.48;40.91;99787.56;10266665;28;20260;-36
2023/07/11 07:20:01;;;;;;;6.35;3.65;;;;;;;25.95;39.63;99745.09;10283025;28;20215;-37
2023/07/11 07:25:04;;;;;;;5.72;3.47;;;;;;;25.53;39.54;99782.16;10278349;28;20749;-36
2023/07/11 07:30:24;;;;;;;6.47;3.53;;;;;;;25.51;39.51;99780.78;10276775;28;20230;-36
2023/07/11 07:35:26;;;;;;;5.43;3.60;;;;;;;26.69;39.10;99728.38;10279886;28;20234;-36
2023/07/11 07:40:28;;;;;;;6.07;3.47;;;;;;;25.06;40.80;99808.16;10274508;28;20231;-36
2023/07/11 07:45:30;;;;;;;4.65;3.58;;;;;;;26.12;39.89;99728.19;10287980;28;20234;-37
2023/07/11 07:50:32;;;;;;;4.20;3.35;;;;;;;26.24;39.84;99754.44;10279976;28;20702;-36
2023/07/11 07:55:38;;;;;;;8.57;3.22;;;;;;;26.33;39.78;99755.44;10279537;28;20317;-36
2023/07/11 08:00:40;;;;;;;6.18;4.13;;;;;;;25.46;41.25;99774.25;10282942;28;20839;-36
2023/07/11 08:05:42;;;;;;;4.53;3.53;;;;;;;26.30;39.99;99737.66;10297386;28;20244;-36
2023/07/11 08:10:43;;;;;;;5.63;3.90;;;;;;;26.94;39.23;99707.19;10290163;28;20854;-36
2023/07/11 08:15:45;;;;;;;5.88;3.85;;;;;;;26.05;38.94;99737.88;10283767;28;20618;-37
2023/07/11 08:20:48;;;;;;;3.65;3.10;;;;;;;26.87;38.91;99739.69;10287917;28;20257;-36
2023/07/11 08:25:54;;;;;;;5.57;3.60;;;;;;;27.77;37.50;99699.31;10285281;28;20559;-36
2023/07/11 08:30:56;;;;;;;5.53;3.70;;;;;;;26.87;39.39;99761.66;10286013;28;20303;-36
2023/07/11 08:35:59;;;;;;;8.10;3.38;;;;;;;27.29;38.12;99735.25;10287340;28;20795;-37
2023/07/11 08:41:16;;;;;;;6.80;4.45;;;;;;;27.03;39.56;99727.38;10285407;28;20231;-36
2023/07/11 08:46:21;;;;;;;6.20;3.50;;;;;;;27.63;38.80;99693.78;10289958;28;20645;-36
2023/07/11 08:51:45;;;;;;;6.75;4.00;;;;;;;27.17;38.98;99710.16;10285403;28;20651;-36
2023/07/11 08:56:48;;;;;;;4.82;3.53;;;;;;;27.94;38.35;99670.44;10288730;28;20706;-36
2023/07/11 09:02:19;;;;;;;4.47;3.63;;;;;;;28.34;37.85;99684.47;10280076;28;20810;-36
2023/07/11 09:07:34;;;;;;;6.70;3.95;;;;;;;27.65;39.35;99655.81;10296257;28;20375;-36
2023/07/11 09:12:46;;;;;;;5.65;3.60;;;;;;;28.29;38.07;99663.41;10276128;28;20313;-36
2023/07/11 09:18:00;;;;;;;6.93;4.22;;;;;;;27.92;39.32;99672.66;10286477;28;20628;-36
2023/07/11 09:23:21;;;;;;;5.78;3.90;;;;;;;28.62;38.95;99634.91;10274439;28;20317;-36
2023/07/11 09:28:28;;;;;;;6.95;4.35;;;;;;;28.36;39.67;99669.31;10280478;28;20214;-37
2023/07/11 09:33:37;;;;;;;8.20;4.65;;;;;;;29.05;38.70;99640.81;10277832;28;20714;-37
2023/07/11 09:38:47;;;;;;;6.88;4.20;;;;;;;29.55;38.23;99622.47;10278235;28;20249;-36
2023/07/11 09:43:49;;;;;;;6.68;4.70;;;;;;;28.88;39.11;99657.16;10277289;28;20237;-36
2023/07/11 09:48:57;;;;;;;6.93;4.20;;;;;;;29.59;38.85;99634.50;10292628;28;20238;-37
2023/07/11 09:53:59;;;;;;;6.68;4.05;;;;;;;30.35;38.87;99614.16;10276844;28;20238;-37
2023/07/11 09:59:02;;;;;;;7.07;4.18;;;;;;;30.34;37.99;99626.34;10284449;28;20233;-37
2023/07/11 10:04:12;;;;;;;6.05;4.10;;;;;;;30.43;37.58;99621.63;10282539;28;20234;-37
2023/07/11 10:09:27;;;;;;;6.22;4.03;;;;;;;29.50;39.41;99650.97;10280108;28;20230;-36
2023/07/11 10:14:35;;;;;;;7.65;4.18;;;;;;;30.23;38.13;99623.06;10289487;28;20643;-36
2023/07/11 10:19:37;;;;;;;7.07;4.40;;;;;;;30.09;37.98;99644.47;10279314;28;20234;-37
2023/07/11 10:24:39;;;;;;;6.13;4.07;;;;;;;30.30;38.07;99620.66;10285842;28;20675;-36
2023/07/11 10:29:49;;;;;;;7.13;4.15;;;;;;;29.91;37.68;99627.00;10281057;28;20228;-37
2023/07/11 10:34:56;;;;;;;6.60;4.10;;;;;;;31.10;37.62;99589.97;10286292;28;20257;-36
2023/07/11 10:40:12;;;;;;;7.65;4.10;;;;;;;31.34;37.40;99589.44;10276109;28;20647;-37
2023/07/11 10:45:23;;;;;;;5.30;3.72;;;;;;;30.61;37.88;99612.25;10280635;28;20576;-37
2023/07/11 10:50:36;;;;;;;5.75;4.30;;;;;;;30.92;38.09;99574.53;10292632;28;20737;-36
2023/07/11 10:55:49;;;;;;;4.30;3.78;;;;;;;31.47;37.56;99573.00;10274496;28;20258;-37
2023/07/11 11:06:43;;;;;;;5.65;4.05;;;;;;;30.42;37.73;99526.19;10357873;27;20811;-67
2023/07/11 11:12:30;;;;;;;5.53;4.10;;;;;;;30.39;38.92;99537.88;10276355;28;20734;-68
2023/07/11 11:17:53;;;;;;;7.93;4.05;;;;;;;30.64;37.36;99527.19;10269919;28;20876;-67
2023/07/11 11:23:03;;;;;;;6.15;3.85;;;;;;;30.76;35.65;99519.84;10273091;28;20232;-68
2023/07/11 11:28:23;;;;;;;6.70;4.30;;;;;;;31.56;36.01;99507.41;10300034;28;20682;-68
2023/07/11 11:33:39;;;;;;;5.10;4.07;;;;;;;31.93;36.52;99493.84;10310497;28;20631;-68
2023/07/11 11:38:55;;;;;;;6.25;3.88;;;;;;;30.69;36.56;99527.81;10311229;28;20237;-68
2023/07/11 11:43:58;;;;;;;7.13;4.07;;;;;;;31.25;36.45;99502.16;10317288;28;20270;-68
2023/07/11 11:49:07;;;;;;;6.35;3.97;;;;;;;31.66;36.05;99482.13;10308340;28;20648;-68
2023/07/11 11:54:37;;;;;;;6.70;4.10;;;;;;;31.00;36.62;99512.97;10316197;28;20622;-68
2023/07/11 11:59:39;;;;;;;8.55;4.45;;;;;;;31.49;35.79;99485.00;10306754;28;20292;-68
2023/07/11 12:05:19;;;;;;;7.63;4.40;;;;;;;31.41;36.27;99478.41;10308358;28;21002;-68
2023/07/11 12:10:24;;;;;;;5.57;3.78;;;;;;;31.91;35.63;99462.94;10317262;28;20238;-68
2023/07/11 12:15:37;;;;;;;5.25;3.95;;;;;;;32.58;35.04;99463.03;10290705;28;20242;-68
2023/07/11 12:20:39;;;;;;;5.13;4.05;;;;;;;32.16;35.78;99463.09;10288495;28;20239;-68
2023/07/11 12:25:40;;;;;;;8.05;3.63;;;;;;;32.17;35.33;99448.09;10282595;28;20562;-68
2023/07/11 12:30:44;;;;;;;5.55;3.85;;;;;;;31.87;35.42;99451.75;10280847;28;20615;-68
2023/07/11 12:35:48;;;;;;;5.78;3.90;;;;;;;32.70;34.80;99442.91;10283234;28;20701;-68
2023/07/11 12:41:13;;;;;;;5.82;3.85;;;;;;;32.22;35.99;99436.81;10283975;28;20238;-68
2023/07/11 12:46:21;;;;;;;6.47;3.95;;;;;;;32.39;34.57;99446.91;10284802;28;20935;-68
2023/07/11 12:51:31;;;;;;;6.22;3.85;;;;;;;32.33;35.19;99407.59;10293501;28;20260;-68
2023/07/11 12:56:33;;;;;;;4.88;3.80;;;;;;;33.53;33.25;99402.84;10278847;28;20265;-68
2023/07/11 13:01:37;;;;;;;8.50;4.32;;;;;;;31.62;34.76;99428.66;10291447;28;20867;-68
2023/07/11 13:06:44;;;;;;;5.45;4.00;;;;;;;32.33;35.26;99395.72;10290837;28;20234;-68
2023/07/11 13:11:45;;;;;;;6.03;3.92;;;;;;;32.69;33.71;99414.38;10285379;28;20650;-68
2023/07/11 13:16:49;;;;;;;8.48;4.15;;;;;;;32.88;33.84;99415.78;10282856;28;20222;-68
2023/07/11 13:21:51;;;;;;;5.97;4.32;;;;;;;32.75;33.64;99415.78;10286043;28;20246;-68
2023/07/11 13:26:54;;;;;;;8.73;4.40;;;;;;;33.33;34.28;99385.22;10280569;28;20228;-68
2023/07/11 13:32:14;;;;;;;8.57;4.32;;;;;;;33.32;33.51;99374.47;10279397;28;20246;-68
2023/07/11 13:37:44;;;;;;;7.47;4.30;;;;;;;33.10;33.24;99373.00;10288027;28;20230;-68
2023/07/11 13:42:46;;;;;;;6.22;3.83;;;;;;;33.89;33.06;99359.53;10294189;28;20230;-68
2023/07/11 13:47:49;;;;;;;5.03;3.90;;;;;;;33.39;33.33;99377.44;10282676;28;20231;-68
2023/07/11 13:52:54;;;;;;;7.65;4.32;;;;;;;34.32;32.65;99359.09;10278200;28;20301;-68
2023/07/11 13:57:56;;;;;;;6.03;4.20;;;;;;;33.74;32.59;99386.03;10286441;28;20230;-68
2023/07/11 14:02:59;;;;;;;5.55;4.00;;;;;;;33.76;32.15;99410.66;10285549;28;20242;-68
2023/07/11 14:08:01;;;;;;;5.35;4.10;;;;;;;32.44;33.92;99386.63;10265387;28;20247;-70
2023/07/11 14:13:08;;;;;;;5.97;4.40;;;;;;;33.77;32.63;99345.69;10275250;28;20706;-70
2023/07/11 14:18:13;;;;;;;9.43;3.88;;;;;;;33.69;33.32;99375.19;10277153;28;20640;-67
2023/07/11 14:23:24;;;;;;;8.38;4.57;;;;;;;33.61;32.69;99369.81;10278454;28;20242;-68
2023/07/11 14:28:26;;;;;;;6.65;4.15;;;;;;;32.51;33.88;99368.63;10285586;28;20321;-68
2023/07/11 14:33:33;;;;;;;7.43;4.53;;;;;;;33.06;33.82;99334.03;10272081;28;20713;-68
2023/07/11 14:38:35;;;;;;;5.97;4.13;;;;;;;33.04;34.23;99333.59;10240001;28;20334;-68
2023/07/11 14:43:37;;;;;;;6.07;4.13;;;;;;;33.17;33.41;99334.41;10250880;28;20369;-68
2023/07/11 14:48:38;;;;;;;5.75;4.38;;;;;;;33.81;32.13;99341.06;10272179;28;20240;-68
2023/07/11 14:53:43;;;;;;;5.22;4.00;;;;;;;32.02;33.85;99377.59;10272205;28;20238;-68
2023/07/11 14:58:47;;;;;;;7.05;4.32;;;;;;;32.58;33.85;99344.75;10253795;28;20242;-66
2023/07/11 15:03:49;;;;;;;8.63;4.47;;;;;;;34.30;32.81;99334.47;10271878;28;20234;-66
2023/07/11 15:08:54;;;;;;;6.60;4.30;;;;;;;33.40;33.42;99353.28;10241748;28;20227;-67
2023/07/11 15:13:58;;;;;;;5.75;4.25;;;;;;;33.16;33.74;99350.22;10254181;28;20636;-67
2023/07/11 15:19:12;;;;;;;5.45;4.45;;;;;;;34.48;32.87;99301.59;10274057;28;20625;-67
2023/07/11 15:24:17;;;;;;;7.38;4.65;;;;;;;34.12;33.28;99311.78;10265563;28;20231;-67
2023/07/11 15:29:19;;;;;;;7.97;4.47;;;;;;;33.51;33.79;99366.31;10256185;28;21068;-67
2023/07/11 15:34:26;;;;;;;5.95;4.50;;;;;;;33.39;33.70;99380.22;10273721;28;20668;-68
2023/07/11 15:39:28;;;;;;;8.75;5.03;;;;;;;34.01;33.28;99355.91;10272825;28;20237;-67
2023/07/11 15:44:29;;;;;;;6.47;4.57;;;;;;;34.49;33.16;99314.31;10277371;28;20230;-67
2023/07/11 15:49:31;;;;;;;8.32;4.80;;;;;;;33.82;35.56;99286.38;10275156;28;20744;-67
2023/07/11 15:54:33;;;;;;;5.53;4.13;;;;;;;32.44;37.04;99250.19;10280164;28;20243;-66
2023/07/11 15:59:35;;;;;;;5.50;4.45;;;;;;;32.04;37.82;99250.81;10279407;28;20227;-66
2023/07/11 16:04:37;;;;;;;8.95;5.20;;;;;;;31.50;37.29;99252.47;10279961;28;20266;-66
2023/07/11 16:09:38;;;;;;;6.35;4.63;;;;;;;30.82;36.97;99283.00;10281001;28;20322;-66
2023/07/11 16:14:41;;;;;;;5.40;4.00;;;;;;;29.52;40.03;99247.16;10279776;28;20511;-67
2023/07/11 16:19:46;;;;;;;7.85;4.00;;;;;;;29.57;40.00;99253.63;10267496;28;20733;-65
2023/07/11 16:24:48;;;;;;;7.43;3.80;;;;;;;30.20;38.02;99278.88;10262064;28;20230;-66
2023/07/11 16:29:50;;;;;;;6.72;4.15;;;;;;;29.95;38.59;99275.81;10294542;28;20285;-66
2023/07/11 16:34:51;;;;;;;4.78;3.78;;;;;;;32.39;35.48;99253.97;10285318;28;20241;-66
2023/07/11 16:39:53;;;;;;;6.65;3.65;;;;;;;31.48;36.01;99251.19;10294169;28;20612;-65
2023/07/11 16:44:55;;;;;;;7.15;3.78;;;;;;;31.34;36.70;99224.63;10287101;28;20857;-66
2023/07/11 16:49:56;;;;;;;7.88;3.58;;;;;;;31.52;36.91;99218.94;10298496;28;20234;-66
2023/07/11 16:54:58;;;;;;;5.43;3.67;;;;;;;31.39;37.04;99195.97;10289119;28;20235;-65
2023/07/11 17:00:00;;;;;;;4.05;3.15;;;;;;;31.17;36.21;99170.31;10291779;28;20226;-68
2023/07/11 17:05:02;;;;;;;4.78;3.30;;;;;;;31.64;35.85;99155.38;10284827;28;20701;-67
2023/07/11 17:10:09;;;;;;;4.50;3.05;;;;;;;32.17;35.22;99157.53;10279453;28;20238;-68
2023/07/11 17:15:17;;;;;;;3.97;3.00;;;;;;;32.68;35.57;99102.59;10285317;28;20624;-66
2023/07/11 17:20:20;;;;;;;4.95;3.55;;;;;;;30.84;38.66;99115.03;10284577;28;20338;-66
2023/07/11 17:25:22;;;;;;;6.40;3.75;;;;;;;29.23;39.67;99070.72;10286934;28;20248;-68
2023/07/11 17:30:24;;;;;;;7.40;3.50;;;;;;;30.02;38.90;99060.19;10260461;28;20235;-67
2023/07/11 17:35:27;;;;;;;5.43;3.13;;;;;;;31.09;37.70;99021.22;10254875;28;20230;-66
2023/07/11 17:40:28;;;;;;;8.20;3.60;;;;;;;32.03;36.78;99045.25;10259671;28;20261;-71
2023/07/11 17:45:30;;;;;;;5.35;3.20;;;;;;;30.90;37.52;99077.75;10265467;28;20698;-67
2023/07/11 17:50:55;;;;;;;4.50;2.67;;;;;;;31.35;36.59;99087.25;10289969;28;20234;-66
2023/07/11 17:55:57;;;;;;;3.60;2.72;;;;;;;29.03;40.41;99127.25;10292628;28;20230;-66
2023/07/11 18:00:59;;;;;;;5.13;3.28;;;;;;;28.08;41.18;99208.44;10289644;28;20289;-67
2023/07/11 18:06:03;;;;;;;11.43;4.28;;;;;;;27.03;43.90;99200.25;10274082;28;20301;-66
2023/07/11 18:11:05;;;;;;;6.95;4.22;;;;;;;26.47;47.06;99161.13;10283694;28;20238;-66
2023/07/11 18:16:21;;;;;;;10.35;4.22;;;;;;;28.38;46.47;99099.53;10282916;28;20237;-66
2023/07/11 18:21:23;;;;;;;6.95;4.85;;;;;;;26.17;50.55;99159.78;10292722;28;20237;-66
2023/07/11 18:26:26;;;;;;;6.22;4.05;;;;;;;26.01;48.64;99115.41;10289308;28;20728;-66
2023/07/11 18:31:28;;;;;;;6.45;4.30;;;;;;;28.66;44.99;99060.72;10285894;28;20238;-66
2023/07/11 18:36:31;;;;;;;5.10;3.80;;;;;;;28.29;45.32;99036.25;10291069;28;20230;-66
2023/07/11 18:41:33;;;;;;;6.60;4.22;;;;;;;27.33;47.59;99011.19;10292324;28;20239;-66
2023/07/11 18:46:35;;;;;;;5.45;4.00;;;;;;;26.49;47.45;99027.22;10291619;28;20239;-66
2023/07/11 18:51:37;;;;;;;6.32;3.90;;;;;;;25.24;50.55;99045.63;10279626;28;20249;-68
2023/07/11 18:56:38;;;;;;;5.03;3.40;;;;;;;26.68;44.85;99081.13;10287816;28;20238;-66
2023/07/11 19:01:40;;;;;;;4.68;3.47;;;;;;;28.26;43.28;99113.06;10283690;28;20334;-66
2023/07/11 19:06:44;;;;;;;4.95;3.40;;;;;;;26.42;47.52;99165.88;10285049;28;20325;-66
2023/07/11 19:11:46;;;;;;;6.10;2.78;;;;;;;24.25;47.19;99184.84;10278875;28;20312;-66
2023/07/11 19:16:47;;;;;;;6.78;3.78;;;;;;;24.30;46.63;99130.13;10287640;28;20772;-66
2023/07/11 19:21:49;;;;;;;3.13;2.42;;;;;;;25.96;46.11;99044.25;10281211;28;20498;-66
2023/07/11 19:26:51;;;;;;;4.65;2.90;;;;;;;25.81;46.79;99127.59;10256880;28;20235;-66
2023/07/11 19:31:54;;;;;;;2.53;2.15;;;;;;;25.92;46.74;99090.66;10274138;28;20249;-67
2023/07/11 19:36:56;;;;;;;3.40;2.42;;;;;;;24.60;47.96;98994.09;10285067;28;20289;-70
2023/07/11 19:41:58;;;;;;;4.05;2.90;;;;;;;25.73;45.81;98986.66;10292516;28;20238;-67
2023/07/11 19:46:59;;;;;;;5.03;2.83;;;;;;;26.64;45.81;99000.56;10287257;28;20238;-66
2023/07/11 19:52:01;;;;;;;4.40;2.75;;;;;;;23.69;49.68;99087.09;10296296;28;20239;-67
2023/07/11 19:57:16;;;;;;;4.07;2.60;;;;;;;24.09;49.94;99104.94;10291620;28;20235;-67
2023/07/11 20:02:20;;;;;;;9.00;3.60;;;;;;;25.86;48.37;99140.38;10280994;28;23117;-68
2023/07/11 20:07:23;;;;;;;4.32;2.95;;;;;;;21.81;55.13;99291.06;10255076;28;20236;-67
2023/07/11 20:12:31;;;;;;;8.02;3.60;;;;;;;23.72;53.64;99314.00;10273425;28;20321;-66
2023/07/11 20:17:32;;;;;;;4.75;3.47;;;;;;;21.99;56.57;99363.28;10276872;28;20254;-73
2023/07/11 20:22:34;;;;;;;8.45;4.38;;;;;;;22.87;56.22;99345.75;10270150;28;20235;-66
2023/07/11 20:27:36;;;;;;;9.13;5.10;;;;;;;22.73;57.03;99331.09;10278679;28;20348;-69
2023/07/11 20:32:38;;;;;;;7.53;4.22;;;;;;;21.67;59.33;99263.56;10290441;28;20231;-68
2023/07/11 20:37:39;;;;;;;7.20;4.78;;;;;;;22.42;58.62;99292.97;10286744;28;20269;-69
2023/07/11 20:42:43;;;;;;;7.13;4.65;;;;;;;21.86;58.96;99325.66;10290462;28;20241;-69
2023/07/11 20:47:46;;;;;;;6.80;4.50;;;;;;;21.74;60.06;99362.13;10292838;28;20331;-66
2023/07/11 20:52:50;;;;;;;5.53;4.35;;;;;;;22.40;59.20;99379.63;10295030;28;20728;-66
2023/07/11 20:57:52;;;;;;;7.22;4.50;;;;;;;22.53;59.01;99400.09;10284038;28;20778;-66
2023/07/11 21:02:55;;;;;;;10.02;5.00;;;;;;;21.09;61.79;99458.72;10283330;28;20381;-66
2023/07/11 21:07:57;;;;;;;6.22;5.07;;;;;;;22.48;59.80;99402.81;10293068;28;20244;-68
2023/07/11 21:12:58;;;;;;;6.53;4.82;;;;;;;23.67;56.76;99436.94;10279658;28;20238;-67
2023/07/11 21:18:01;;;;;;;7.10;5.07;;;;;;;24.28;55.69;99476.78;10293741;28;20235;-66
2023/07/11 21:23:04;;;;;;;9.23;5.05;;;;;;;23.17;57.47;99529.63;10298822;28;20236;-69
2023/07/11 21:28:30;;;;;;;9.40;5.78;;;;;;;23.41;57.30;99488.06;10287995;28;20207;-67
2023/07/11 21:33:32;;;;;;;9.18;5.45;;;;;;;22.80;59.24;99434.44;10286141;28;20244;-66
2023/07/11 21:38:34;;;;;;;6.68;4.93;;;;;;;22.45;60.02;99305.22;10286890;28;20717;-68
2023/07/11 21:43:36;;;;;;;7.25;5.00;;;;;;;21.76;60.65;99305.50;10292589;28;20241;-68
2023/07/11 21:48:38;;;;;;;5.97;4.32;;;;;;;22.78;58.26;99327.53;10278982;28;20999;-68
2023/07/11 21:53:40;;;;;;;6.90;4.35;;;;;;;22.45;58.18;99401.44;10285825;28;20657;-68
2023/07/11 21:58:41;;;;;;;6.13;4.80;;;;;;;24.34;54.78;99431.06;10286934;28;20235;-69
2023/07/11 22:03:44;;;;;;;5.88;4.18;;;;;;;24.34;54.45;99423.69;10278523;28;20242;-66
2023/07/11 22:08:46;;;;;;;6.70;4.50;;;;;;;24.57;54.00;99383.03;10289884;28;20291;-66
2023/07/11 22:13:48;;;;;;;8.48;4.28;;;;;;;25.14;52.88;99382.44;10289737;28;20237;-66
2023/07/11 22:18:51;;;;;;;5.45;4.28;;;;;;;26.11;51.21;99392.09;10281377;28;20277;-66
2023/07/11 22:23:53;;;;;;;6.40;4.25;;;;;;;25.09;52.51;99435.31;10278667;28;20308;-66
2023/07/11 22:29:18;;;;;;;6.57;5.18;;;;;;;26.49;49.95;99375.59;10289202;28;20735;-67
2023/07/11 22:34:20;;;;;;;7.07;4.15;;;;;;;25.58;51.66;99365.72;10287018;28;20230;-66
2023/07/11 22:39:22;;;;;;;5.07;3.70;;;;;;;26.28;51.01;99316.72;10281178;28;20262;-66
2023/07/11 22:44:24;;;;;;;6.28;3.90;;;;;;;25.62;51.38;99322.13;10280524;28;20234;-65
2023/07/11 22:49:26;;;;;;;5.93;3.63;;;;;;;26.18;49.37;99298.47;10279667;28;20242;-66
2023/07/11 22:54:28;;;;;;;4.82;3.42;;;;;;;25.95;49.99;99341.38;10272159;28;20331;-66
2023/07/11 22:59:29;;;;;;;6.45;3.42;;;;;;;24.74;52.74;99331.44;10263123;28;20231;-66
2023/07/11 23:04:31;;;;;;;4.05;3.50;;;;;;;24.33;52.98;99345.50;10288022;28;20227;-69
2023/07/11 23:09:33;;;;;;;6.78;3.80;;;;;;;24.94;51.71;99315.91;10287888;28;20261;-68
2023/07/11 23:14:34;;;;;;;4.70;3.45;;;;;;;23.43;53.34;99379.41;10286673;28;20360;-65
2023/07/11 23:19:36;;;;;;;3.72;3.25;;;;;;;25.66;50.44;99310.28;10271302;28;20238;-68
2023/07/11 23:24:38;;;;;;;6.75;3.90;;;;;;;25.00;52.00;99303.78;10271473;28;20608;-68
2023/07/11 23:29:40;;;;;;;7.03;4.53;;;;;;;25.24;51.31;99305.69;10272998;28;20241;-65
2023/07/11 23:34:43;;;;;;;6.60;4.20;;;;;;;23.38;55.39;99341.22;10283211;28;20238;-68
2023/07/11 23:39:45;;;;;;;5.07;3.58;;;;;;;22.29;57.28;99339.84;10283528;28;20314;-68